Time;durP1;ratioP1;P1;durP2;ratioP2;P2;SDS_P1;SDS_P2;PMS_P1;PMS_P2;Temp;Humidity;BMP_temperature;BMP_pressure;BME280_temperature;BME280_humidity;BME280_pressure;Samples;Min_cycle;Max_cycle;Signal;HPM_P1;HPM_P2
2022/03/01 00:02:22;;;;;;;10.50;5.57;;;0.00;81.30;;;;;;5057086;28;20449;-70
2022/03/01 00:04:49;;;;;;;9.73;4.47;;;0.00;81.60;;;;;;5053052;28;20032;-70
2022/03/01 00:07:15;;;;;;;;;;;0.00;81.30;;;;;;5033412;28;20370;-70
2022/03/01 00:09:41;;;;;;;9.77;5.57;;;-0.10;80.90;;;;;;5052910;28;19912;-70
2022/03/01 00:12:07;;;;;;;10.87;4.63;;;-0.10;80.70;;;;;;5036694;28;20068;-70
2022/03/01 00:14:33;;;;;;;9.25;4.88;;;-0.10;80.90;;;;;;5052715;28;20048;-70
2022/03/01 00:16:58;;;;;;;9.23;4.67;;;-0.10;80.80;;;;;;5052095;28;20028;-70
2022/03/01 00:19:27;;;;;;;10.40;4.40;;;-0.20;81.70;;;;;;5055397;28;20021;-70
2022/03/01 00:21:54;;;;;;;9.27;4.80;;;-0.20;81.20;;;;;;5044861;28;20013;-70
2022/03/01 00:24:19;;;;;;;8.05;4.32;;;-0.10;81.50;;;;;;5024034;28;20021;-69
2022/03/01 00:26:45;;;;;;;11.87;4.63;;;-0.20;81.90;;;;;;5048105;28;20036;-70
2022/03/01 00:29:11;;;;;;;14.30;5.43;;;-0.20;81.90;;;;;;5054192;28;20074;-70
2022/03/01 00:31:37;;;;;;;8.45;5.25;;;-0.20;81.80;;;;;;5045433;28;20021;-70
2022/03/01 00:34:02;;;;;;;10.53;4.70;;;-0.20;82.30;;;;;;5056557;28;20406;-70
2022/03/01 00:36:28;;;;;;;9.07;4.97;;;-0.30;82.30;;;;;;5036545;28;20837;-70
2022/03/01 00:38:55;;;;;;;9.43;4.67;;;-0.30;82.60;;;;;;5053295;28;20508;-69
2022/03/01 00:41:20;;;;;;;9.98;5.68;;;-0.30;83.20;;;;;;5054594;28;20489;-70
2022/03/01 00:43:46;;;;;;;8.33;4.67;;;-0.30;82.80;;;;;;5051712;28;20051;-69
2022/03/01 00:46:11;;;;;;;8.93;4.97;;;-0.30;82.80;;;;;;5039054;28;20420;-70
2022/03/01 00:48:37;;;;;;;8.87;4.70;;;-0.30;83.00;;;;;;5048516;28;20377;-70
2022/03/01 00:51:03;;;;;;;11.53;5.10;;;-0.40;83.30;;;;;;5057622;28;20530;-69
2022/03/01 00:53:28;;;;;;;10.80;5.10;;;-0.40;83.50;;;;;;5046531;28;20075;-70
2022/03/01 00:55:54;;;;;;;9.37;5.17;;;-0.40;83.70;;;;;;5045446;28;20020;-69
2022/03/01 00:58:20;;;;;;;10.07;5.27;;;-0.40;84.10;;;;;;5050658;28;20029;-70
2022/03/01 01:00:45;;;;;;;7.17;4.40;;;-0.40;84.00;;;;;;5052376;28;20033;-70
2022/03/01 01:03:11;;;;;;;12.33;4.80;;;-0.40;84.40;;;;;;5053136;28;20394;-69
2022/03/01 01:05:37;;;;;;;8.80;4.93;;;-0.50;84.50;;;;;;5049944;28;20043;-70
2022/03/01 01:08:02;;;;;;;8.97;5.07;;;-0.50;84.80;;;;;;5053058;28;20498;-70
2022/03/01 01:10:29;;;;;;;9.60;5.13;;;-0.50;85.00;;;;;;5048919;28;20024;-69
2022/03/01 01:12:55;;;;;;;8.00;4.40;;;-0.50;85.30;;;;;;5023671;28;20025;-71
2022/03/01 01:15:20;;;;;;;7.90;4.50;;;-0.50;85.40;;;;;;5057125;28;20036;-69
2022/03/01 01:17:46;;;;;;;8.30;4.80;;;-0.50;85.50;;;;;;5031602;28;20028;-69
2022/03/01 01:20:13;;;;;;;9.07;5.20;;;-0.50;85.60;;;;;;5049633;28;20029;-69
2022/03/01 01:22:39;;;;;;;8.27;5.32;;;-0.50;85.60;;;;;;5045889;28;20082;-70
2022/03/01 01:25:06;;;;;;;8.63;4.63;;;-0.50;85.90;;;;;;5056099;28;20032;-70
2022/03/01 01:27:32;;;;;;;12.75;5.43;;;-0.50;85.90;;;;;;5052419;28;20035;-68
2022/03/01 01:29:58;;;;;;;8.87;4.53;;;-0.50;86.00;;;;;;5050321;28;20021;-70
2022/03/01 01:32:24;;;;;;;13.23;5.70;;;-0.50;86.10;;;;;;5055217;28;20029;-69
2022/03/01 01:34:49;;;;;;;8.70;5.13;;;-0.60;86.50;;;;;;5056147;28;20074;-70
2022/03/01 01:37:15;;;;;;;9.87;5.33;;;-0.60;86.70;;;;;;5042894;28;20024;-70
2022/03/01 01:39:41;;;;;;;9.87;5.27;;;-0.50;86.80;;;;;;5037926;28;20028;-70
2022/03/01 01:42:07;;;;;;;9.57;5.03;;;-0.60;86.80;;;;;;5059068;28;20114;-69
2022/03/01 01:44:33;;;;;;;8.70;5.43;;;-0.60;86.80;;;;;;5037930;28;20186;-70
2022/03/01 01:46:59;;;;;;;9.07;5.32;;;-0.60;87.00;;;;;;5057390;28;20044;-69
2022/03/01 01:49:24;;;;;;;8.65;5.45;;;-0.60;87.00;;;;;;5052512;28;20033;-70
2022/03/01 01:51:50;;;;;;;9.80;5.50;;;-0.60;87.30;;;;;;5056192;28;20036;-70
2022/03/01 01:54:16;;;;;;;12.97;5.53;;;-0.60;87.30;;;;;;5056452;28;20025;-69
2022/03/01 01:56:42;;;;;;;13.37;5.90;;;-0.60;87.10;;;;;;5055683;28;20009;-70
2022/03/01 01:59:07;;;;;;;12.80;5.70;;;-0.60;87.10;;;;;;5046219;28;20528;-70
2022/03/01 02:01:33;;;;;;;12.33;5.47;;;-0.60;87.40;;;;;;5056647;28;20822;-69
2022/03/01 02:03:59;;;;;;;11.67;5.87;;;-0.60;87.70;;;;;;5053050;28;20032;-70
2022/03/01 02:06:26;;;;;;;9.63;5.00;;;-0.70;87.90;;;;;;5031603;28;20115;-70
2022/03/01 02:08:52;;;;;;;10.02;5.22;;;-0.70;88.10;;;;;;5052521;28;20024;-69
2022/03/01 02:11:18;;;;;;;8.20;4.90;;;-0.70;88.20;;;;;;5055417;28;20157;-70
2022/03/01 02:13:43;;;;;;;8.27;5.30;;;-0.70;88.30;;;;;;5051923;28;20051;-70
2022/03/01 02:16:09;;;;;;;9.13;4.87;;;-0.70;88.20;;;;;;5059788;28;20033;-69
2022/03/01 02:18:36;;;;;;;12.15;5.95;;;-0.70;88.20;;;;;;5052406;28;20033;-70
2022/03/01 02:21:02;;;;;;;9.35;4.97;;;-0.70;88.50;;;;;;5027870;28;20475;-70
2022/03/01 02:23:28;;;;;;;11.80;5.43;;;-0.70;88.50;;;;;;5056450;28;20028;-70
2022/03/01 02:25:55;;;;;;;13.30;5.87;;;-0.70;88.50;;;;;;5056093;28;20628;-70
2022/03/01 02:28:20;;;;;;;8.65;4.93;;;-0.70;88.60;;;;;;5054807;28;20538;-70
2022/03/01 02:30:46;;;;;;;12.60;5.50;;;-0.70;89.00;;;;;;5052693;28;20033;-70
2022/03/01 02:33:13;;;;;;;11.40;6.03;;;-0.70;89.20;;;;;;5040285;28;20013;-70
2022/03/01 02:35:38;;;;;;;;;;;-0.70;89.10;;;;;;5053827;28;20024;-70
2022/03/01 02:38:04;;;;;;;7.70;4.95;;;-0.70;89.20;;;;;;5060241;28;20003;-70
2022/03/01 02:40:30;;;;;;;11.30;5.57;;;-0.70;89.30;;;;;;5059901;28;20028;-70
2022/03/01 02:42:56;;;;;;;10.53;5.43;;;-0.70;89.60;;;;;;5048106;28;20075;-70
2022/03/01 02:45:22;;;;;;;10.17;5.80;;;-0.80;89.80;;;;;;5053842;28;20024;-69
2022/03/01 02:47:48;;;;;;;12.00;5.68;;;-0.80;90.00;;;;;;5054229;28;20021;-70
2022/03/01 02:50:16;;;;;;;10.55;5.15;;;-0.80;90.10;;;;;;5060449;28;20075;-67
2022/03/01 02:52:42;;;;;;;11.10;5.38;;;-0.80;90.10;;;;;;5055666;28;20021;-70
2022/03/01 02:55:09;;;;;;;10.82;5.55;;;-0.80;90.20;;;;;;5027210;28;20060;-67
2022/03/01 02:57:35;;;;;;;10.30;5.40;;;-0.80;90.20;;;;;;5050586;28;20048;-70
2022/03/01 03:00:03;;;;;;;13.27;5.80;;;-0.70;90.30;;;;;;5054915;28;20024;-70
2022/03/01 03:02:28;;;;;;;10.13;5.82;;;-0.80;90.30;;;;;;5026919;28;20108;-69
2022/03/01 03:04:54;;;;;;;11.07;5.57;;;-0.80;90.40;;;;;;5052160;28;20554;-69
2022/03/01 03:07:20;;;;;;;10.60;5.17;;;-0.80;90.50;;;;;;5056747;28;20177;-69
2022/03/01 03:09:46;;;;;;;9.85;5.40;;;-0.80;90.60;;;;;;5050533;28;20078;-69
2022/03/01 03:12:12;;;;;;;9.67;5.23;;;-0.80;90.80;;;;;;5055401;28;20025;-69
2022/03/01 03:14:37;;;;;;;9.33;5.47;;;-0.80;90.80;;;;;;5032834;28;20106;-69
2022/03/01 03:17:03;;;;;;;10.40;5.30;;;-0.80;91.00;;;;;;5055227;28;20416;-69
2022/03/01 03:19:29;;;;;;;10.33;5.37;;;-0.80;91.00;;;;;;5058311;28;20104;-69
2022/03/01 03:21:55;;;;;;;11.13;5.43;;;-0.90;90.90;;;;;;5054172;28;20131;-69
2022/03/01 03:24:21;;;;;;;10.37;5.67;;;-0.90;91.00;;;;;;5055304;28;20048;-70
2022/03/01 03:26:46;;;;;;;10.23;5.50;;;-0.90;91.10;;;;;;5036374;28;20051;-69
2022/03/01 03:29:12;;;;;;;10.37;5.90;;;-0.90;91.10;;;;;;5052717;28;20128;-69
2022/03/01 03:31:41;;;;;;;12.77;5.90;;;-0.90;91.20;;;;;;5052707;28;20029;-69
2022/03/01 03:34:08;;;;;;;9.50;5.75;;;-0.90;91.30;;;;;;5057938;28;20509;-69
2022/03/01 03:36:39;;;;;;;11.25;5.72;;;-0.90;91.30;;;;;;5055321;28;20021;-69
2022/03/01 03:39:08;;;;;;;11.35;5.20;;;-1.00;91.40;;;;;;5055131;28;20040;-69
2022/03/01 03:41:34;;;;;;;10.98;6.05;;;-1.00;91.30;;;;;;5054407;28;20450;-69
2022/03/01 03:44:00;;;;;;;8.93;5.23;;;-1.00;91.40;;;;;;5055065;28;20036;-69
2022/03/01 03:46:26;;;;;;;10.90;5.55;;;-1.00;91.50;;;;;;5053483;28;20091;-69
2022/03/01 03:48:52;;;;;;;9.07;5.07;;;-1.00;91.60;;;;;;5038976;28;20028;-69
2022/03/01 03:51:19;;;;;;;11.77;5.40;;;-1.00;91.50;;;;;;5052829;28;20332;-70
2022/03/01 03:53:45;;;;;;;9.55;5.60;;;-1.00;91.50;;;;;;5053513;28;20047;-69
2022/03/01 03:56:11;;;;;;;8.93;5.75;;;-1.00;91.40;;;;;;5054310;28;20139;-68
2022/03/01 03:58:37;;;;;;;10.10;5.63;;;-1.00;91.40;;;;;;5025904;28;20120;-69
2022/03/01 04:01:04;;;;;;;9.47;5.63;;;-1.00;91.50;;;;;;5048831;28;20802;-69
2022/03/01 04:03:30;;;;;;;;;;;-1.00;91.50;;;;;;5054236;28;20024;-69
2022/03/01 04:05:56;;;;;;;12.75;5.53;;;-1.00;91.60;;;;;;5048044;28;19918;-69
2022/03/01 04:08:21;;;;;;;11.40;5.40;;;-1.00;91.60;;;;;;5053556;28;20035;-69
2022/03/01 04:10:47;;;;;;;11.70;5.53;;;-1.00;91.90;;;;;;5047474;28;20020;-69
2022/03/01 04:13:13;;;;;;;8.03;5.20;;;-1.10;91.70;;;;;;5051405;28;20424;-70
2022/03/01 04:15:39;;;;;;;11.50;5.40;;;-1.10;91.80;;;;;;5054469;28;20021;-69
2022/03/01 04:18:05;;;;;;;8.90;5.57;;;-1.10;91.90;;;;;;5041871;28;20044;-69
2022/03/01 04:20:31;;;;;;;11.83;5.53;;;-1.10;91.90;;;;;;5045591;28;20032;-69
2022/03/01 04:22:57;;;;;;;11.15;6.22;;;-1.10;91.90;;;;;;5019627;28;20032;-69
2022/03/01 04:25:23;;;;;;;11.50;5.73;;;-1.10;92.00;;;;;;5045199;28;20551;-69
2022/03/01 04:27:50;;;;;;;8.77;5.75;;;-1.10;92.00;;;;;;5053620;28;20029;-69
2022/03/01 04:30:16;;;;;;;;;;;-1.20;92.00;;;;;;5049400;28;20090;-69
2022/03/01 04:32:43;;;;;;;11.63;5.63;;;-1.20;91.90;;;;;;5051813;28;19987;-69
2022/03/01 04:35:10;;;;;;;12.05;5.88;;;-1.20;92.10;;;;;;5055433;28;20119;-69
2022/03/01 04:37:37;;;;;;;12.55;6.25;;;-1.20;92.10;;;;;;5050566;28;20473;-69
2022/03/01 04:40:07;;;;;;;11.18;5.82;;;-1.20;92.10;;;;;;5056208;28;20023;-69
2022/03/01 04:42:33;;;;;;;10.90;5.47;;;-1.20;92.10;;;;;;5049765;28;20020;-69
2022/03/01 04:45:00;;;;;;;12.47;5.80;;;-1.20;92.10;;;;;;5057773;28;20070;-69
2022/03/01 04:47:26;;;;;;;13.15;6.32;;;-1.20;92.10;;;;;;5041215;28;20449;-69
2022/03/01 04:49:52;;;;;;;10.63;6.07;;;-1.20;92.10;;;;;;5054989;28;20127;-69
2022/03/01 04:52:18;;;;;;;10.23;5.65;;;-1.20;92.10;;;;;;5049718;28;20449;-69
2022/03/01 04:54:44;;;;;;;13.40;6.23;;;-1.30;92.10;;;;;;5036962;28;20033;-69
2022/03/01 04:57:10;;;;;;;11.53;5.97;;;-1.30;92.20;;;;;;5049433;28;20103;-70
2022/03/01 04:59:36;;;;;;;9.30;5.97;;;-1.30;92.30;;;;;;5036009;28;20853;-69
2022/03/01 05:02:02;;;;;;;10.63;5.63;;;-1.40;92.30;;;;;;5047708;28;20024;-69
2022/03/01 05:04:28;;;;;;;13.98;6.22;;;-1.40;92.40;;;;;;5052274;28;20107;-69
2022/03/01 05:06:54;;;;;;;10.30;5.83;;;-1.40;92.40;;;;;;5029993;28;20434;-69
2022/03/01 05:09:24;;;;;;;12.00;5.87;;;-1.40;92.50;;;;;;5049106;28;20040;-69
2022/03/01 05:11:50;;;;;;;10.68;5.82;;;-1.40;92.50;;;;;;5052579;28;20337;-69
2022/03/01 05:14:17;;;;;;;10.70;5.85;;;-1.40;92.50;;;;;;5049098;28;20040;-70
2022/03/01 05:16:43;;;;;;;9.65;5.63;;;-1.30;92.70;;;;;;5052609;28;20091;-69
2022/03/01 05:19:09;;;;;;;11.15;6.57;;;-1.40;92.70;;;;;;5052478;28;20393;-69
2022/03/01 05:21:39;;;;;;;8.73;5.23;;;-1.30;92.60;;;;;;5031009;28;20033;-69
2022/03/01 05:24:05;;;;;;;9.98;6.13;;;-1.30;92.80;;;;;;5041316;28;20104;-69
2022/03/01 05:26:31;;;;;;;14.40;6.68;;;-1.30;92.90;;;;;;5045941;28;20313;-69
2022/03/01 05:28:57;;;;;;;16.10;7.07;;;-1.30;93.00;;;;;;5053170;28;20033;-69
2022/03/01 05:31:23;;;;;;;14.88;6.60;;;-1.30;93.10;;;;;;5045103;28;20029;-69
2022/03/01 05:33:48;;;;;;;11.10;6.30;;;-1.40;93.20;;;;;;5052511;28;20110;-69
2022/03/01 05:36:15;;;;;;;9.93;6.17;;;-1.40;93.20;;;;;;5051669;28;20028;-69
2022/03/01 05:38:42;;;;;;;11.23;6.50;;;-1.30;93.30;;;;;;5050164;28;20100;-69
2022/03/01 05:41:08;;;;;;;11.00;6.50;;;-1.30;93.40;;;;;;5055942;28;20490;-69
2022/03/01 05:43:35;;;;;;;12.47;6.83;;;-1.30;93.50;;;;;;5045013;28;20071;-69
2022/03/01 05:46:01;;;;;;;12.27;6.25;;;-1.20;93.50;;;;;;5052759;28;20028;-69
2022/03/01 05:48:26;;;;;;;12.52;7.18;;;-1.10;93.40;;;;;;5046048;28;20037;-69
2022/03/01 05:50:53;;;;;;;10.53;5.90;;;-1.00;93.40;;;;;;5055553;28;20098;-70
2022/03/01 05:53:19;;;;;;;16.30;7.97;;;-0.70;93.20;;;;;;5051820;28;20035;-70
2022/03/01 05:55:44;;;;;;;12.97;6.63;;;-0.40;92.70;;;;;;5055837;28;20506;-69
2022/03/01 05:58:10;;;;;;;10.90;6.67;;;-0.10;92.10;;;;;;5049786;28;20029;-70
2022/03/01 06:00:36;;;;;;;12.03;6.80;;;0.40;91.30;;;;;;5046528;28;20036;-70
2022/03/01 06:03:03;;;;;;;13.70;7.50;;;0.80;90.60;;;;;;5050677;28;20059;-70
2022/03/01 06:05:29;;;;;;;11.00;6.78;;;1.30;88.80;;;;;;5052355;28;20028;-70
2022/03/01 06:07:58;;;;;;;10.82;5.88;;;1.90;86.90;;;;;;5045812;28;20032;-71
2022/03/01 06:10:25;;;;;;;12.27;6.53;;;2.50;84.70;;;;;;5018192;28;20103;-70
2022/03/01 06:12:51;;;;;;;10.55;6.10;;;3.10;82.30;;;;;;5038363;28;20035;-70
2022/03/01 06:15:16;;;;;;;10.47;6.77;;;3.70;78.50;;;;;;5057433;28;20032;-70
2022/03/01 06:17:43;;;;;;;13.63;6.77;;;4.40;75.80;;;;;;5035404;28;20021;-70
2022/03/01 06:20:09;;;;;;;10.27;6.50;;;5.00;72.50;;;;;;5029075;28;20013;-70
2022/03/01 06:22:36;;;;;;;12.05;6.43;;;5.70;69.20;;;;;;5051700;28;20782;-70
2022/03/01 06:25:03;;;;;;;11.85;6.57;;;6.20;65.80;;;;;;5056665;28;20012;-70
2022/03/01 06:27:29;;;;;;;10.13;6.10;;;6.70;64.30;;;;;;5055019;28;20028;-70
2022/03/01 06:29:55;;;;;;;11.55;7.00;;;7.40;61.90;;;;;;5056580;28;20619;-70
2022/03/01 06:32:21;;;;;;;10.90;7.13;;;8.00;59.00;;;;;;5046191;28;20040;-70
2022/03/01 06:34:47;;;;;;;12.45;9.52;;;8.40;57.40;;;;;;5060894;28;20052;-70
2022/03/01 06:37:13;;;;;;;10.02;6.60;;;9.20;55.20;;;;;;5059089;28;20037;-70
2022/03/01 06:39:43;;;;;;;8.55;6.30;;;9.80;53.30;;;;;;5055264;28;20021;-70
2022/03/01 06:42:10;;;;;;;10.90;6.78;;;10.40;51.00;;;;;;5051364;28;20032;-70
2022/03/01 06:44:37;;;;;;;9.73;6.93;;;10.90;49.50;;;;;;5020081;28;20044;-70
2022/03/01 06:47:04;;;;;;;9.93;6.45;;;11.40;48.30;;;;;;5061296;28;20501;-70
2022/03/01 06:49:29;;;;;;;10.02;6.65;;;11.80;46.50;;;;;;5051221;28;20040;-71
2022/03/01 06:51:55;;;;;;;12.75;7.07;;;12.20;45.80;;;;;;5026478;28;20024;-71
2022/03/01 06:54:22;;;;;;;11.23;7.25;;;12.60;45.10;;;;;;5049905;28;20393;-71
2022/03/01 06:56:48;;;;;;;12.32;7.75;;;13.00;43.80;;;;;;5050805;28;20009;-71
2022/03/01 06:59:14;;;;;;;9.55;7.13;;;13.20;43.30;;;;;;5037920;28;20094;-70
2022/03/01 07:01:40;;;;;;;9.63;7.38;;;13.80;42.60;;;;;;5025234;28;20102;-72
2022/03/01 07:04:07;;;;;;;11.65;7.57;;;14.20;42.40;;;;;;5062033;28;20032;-72
2022/03/01 07:06:34;;;;;;;11.93;7.72;;;14.50;41.30;;;;;;5048700;28;20032;-72
2022/03/01 07:08:59;;;;;;;13.00;7.22;;;14.60;40.80;;;;;;5041341;28;20703;-72
2022/03/01 07:11:25;;;;;;;11.02;7.18;;;14.70;40.00;;;;;;5022391;28;20029;-72
2022/03/01 07:13:52;;;;;;;12.60;7.72;;;14.90;39.50;;;;;;5053731;28;20017;-70
2022/03/01 07:16:17;;;;;;;10.75;8.00;;;15.00;39.20;;;;;;5055112;28;20024;-70
2022/03/01 07:18:44;;;;;;;13.50;7.68;;;15.30;38.70;;;;;;5037476;28;20020;-70
2022/03/01 07:21:10;;;;;;;10.60;7.45;;;15.30;38.10;;;;;;5054018;28;20047;-70
2022/03/01 07:23:36;;;;;;;11.65;7.70;;;15.20;38.30;;;;;;5052373;28;20074;-70
2022/03/01 07:26:04;;;;;;;;;;;15.30;38.90;;;;;;5059692;28;20764;-70
2022/03/01 07:28:30;;;;;;;;;;;15.80;37.40;;;;;;5046202;28;20250;-70
2022/03/01 07:30:57;;;;;;;10.27;7.32;;;16.20;36.70;;;;;;5047600;28;20379;-70
2022/03/01 07:33:23;;;;;;;12.27;7.70;;;16.60;36.10;;;;;;5050947;28;20037;-70
2022/03/01 07:35:49;;;;;;;10.63;7.53;;;16.90;36.40;;;;;;5057146;28;20070;-72
2022/03/01 07:38:15;;;;;;;9.57;7.10;;;16.90;35.50;;;;;;5057706;28;20053;-72
2022/03/01 07:40:41;;;;;;;12.30;7.57;;;16.90;35.40;;;;;;5051863;28;20494;-72
2022/03/01 07:43:07;;;;;;;11.35;7.82;;;16.80;35.60;;;;;;5057663;28;20044;-72
2022/03/01 07:45:34;;;;;;;9.32;7.28;;;16.90;35.40;;;;;;5033490;28;20103;-72
2022/03/01 07:48:01;;;;;;;11.60;8.23;;;17.10;35.70;;;;;;5052589;28;20039;-73
2022/03/01 07:50:28;;;;;;;9.55;7.57;;;17.30;35.00;;;;;;5053623;28;20038;-73
2022/03/01 07:52:54;;;;;;;10.93;7.93;;;17.70;34.60;;;;;;5031941;28;21416;-72
2022/03/01 07:55:20;;;;;;;11.25;8.02;;;18.10;33.90;;;;;;5052175;28;20028;-73
2022/03/01 07:57:46;;;;;;;13.65;8.50;;;18.00;34.10;;;;;;5045006;28;20473;-73
2022/03/01 08:00:12;;;;;;;;;;;17.70;34.10;;;;;;5050044;28;20028;-72
2022/03/01 08:02:38;;;;;;;11.60;8.32;;;18.00;33.50;;;;;;5047594;28;19950;-72
2022/03/01 08:05:09;;;;;;;12.95;8.25;;;18.10;33.80;;;;;;5045130;28;20393;-72
2022/03/01 08:07:34;;;;;;;10.70;8.57;;;18.40;33.10;;;;;;5035013;28;20058;-70
2022/03/01 08:10:00;;;;;;;;;;;18.60;33.30;;;;;;5046359;28;20090;-71
2022/03/01 08:12:26;;;;;;;11.55;8.70;;;18.70;32.60;;;;;;5047997;28;20173;-71
2022/03/01 08:14:52;;;;;;;;;;;18.90;32.50;;;;;;5051727;28;20016;-70
2022/03/01 08:17:19;;;;;;;11.48;8.20;;;18.80;32.50;;;;;;5056515;28;19946;-70
2022/03/01 08:19:48;;;;;;;12.07;8.05;;;18.50;32.90;;;;;;5053193;28;20142;-70
2022/03/01 08:22:15;;;;;;;13.90;8.88;;;18.60;33.20;;;;;;5025585;28;20386;-71
2022/03/01 08:24:41;;;;;;;11.93;8.98;;;18.80;32.50;;;;;;5051753;28;20020;-70
2022/03/01 08:27:06;;;;;;;;;;;19.20;32.40;;;;;;5033552;28;20024;-71
2022/03/01 08:29:33;;;;;;;10.98;8.23;;;19.60;31.80;;;;;;5056108;28;19961;-71
2022/03/01 08:31:59;;;;;;;11.70;8.13;;;19.60;31.00;;;;;;5046860;28;20105;-70
2022/03/01 08:34:25;;;;;;;;;;;18.80;32.00;;;;;;5038372;28;20479;-71
2022/03/01 08:36:51;;;;;;;11.15;8.57;;;19.10;32.00;;;;;;5056385;28;19908;-70
2022/03/01 08:39:16;;;;;;;;;;;19.50;31.30;;;;;;5052832;28;20059;-71
2022/03/01 08:41:42;;;;;;;9.18;7.47;;;19.60;31.40;;;;;;5036719;28;19917;-71
2022/03/01 08:44:08;;;;;;;;;;;19.80;31.10;;;;;;5053425;28;20069;-71
2022/03/01 08:46:34;;;;;;;10.35;7.78;;;19.40;30.90;;;;;;5055375;28;19904;-73
2022/03/01 08:49:00;;;;;;;10.57;7.95;;;19.70;31.10;;;;;;5052163;28;20032;-73
2022/03/01 08:51:26;;;;;;;;;;;20.00;30.40;;;;;;5049303;28;20032;-72
2022/03/01 08:53:53;;;;;;;11.90;7.60;;;19.30;30.90;;;;;;5049811;28;20486;-73
2022/03/01 08:56:19;;;;;;;9.32;7.57;;;19.20;30.80;;;;;;5052780;28;20516;-72
2022/03/01 08:58:46;;;;;;;10.65;8.02;;;19.50;31.10;;;;;;5046881;28;20082;-73
2022/03/01 09:01:12;;;;;;;13.38;8.13;;;19.50;31.00;;;;;;5050715;28;20017;-72
2022/03/01 09:03:38;;;;;;;;;;;20.10;30.50;;;;;;5053463;28;20358;-72
2022/03/01 09:06:05;;;;;;;11.45;8.02;;;19.80;30.30;;;;;;5057269;28;19954;-72
2022/03/01 09:08:40;;;;;;;11.25;7.43;;;20.00;30.70;;;;;;5050357;28;20059;-72
2022/03/01 09:11:06;;;;;;;9.63;7.95;;;20.10;30.30;;;;;;5055592;28;20086;-72
2022/03/01 09:13:32;;;;;;;11.43;8.05;;;19.90;30.10;;;;;;5051599;28;20054;-73
2022/03/01 09:15:58;;;;;;;10.15;8.48;;;18.50;31.30;;;;;;5053409;28;20032;-72
2022/03/01 09:18:24;;;;;;;10.65;7.70;;;17.40;32.50;;;;;;5057695;28;20059;-72
2022/03/01 09:20:50;;;;;;;10.20;7.90;;;17.20;33.10;;;;;;5048187;28;20020;-72
2022/03/01 09:23:15;;;;;;;10.95;8.23;;;17.40;33.30;;;;;;5054714;28;20060;-72
2022/03/01 09:25:42;;;;;;;;;;;18.10;32.70;;;;;;5049975;28;20051;-72
2022/03/01 09:28:08;;;;;;;8.40;6.85;;;18.40;32.20;;;;;;5049692;28;19912;-72
2022/03/01 09:30:34;;;;;;;;;;;18.80;31.30;;;;;;5046702;28;20009;-72
2022/03/01 09:32:59;;;;;;;7.82;6.65;;;19.10;31.00;;;;;;5054901;28;19905;-72
2022/03/01 09:35:25;;;;;;;;;;;19.10;30.50;;;;;;5049443;28;20025;-73
2022/03/01 09:37:51;;;;;;;10.45;7.60;;;19.10;30.80;;;;;;5051149;28;19969;-73
2022/03/01 09:40:16;;;;;;;10.88;7.30;;;19.20;30.30;;;;;;5054091;28;20354;-72
2022/03/01 09:42:42;;;;;;;;;;;19.20;31.50;;;;;;5050139;28;20756;-72
2022/03/01 09:45:10;;;;;;;10.27;7.13;;;18.90;30.50;;;;;;5052173;28;19995;-72
2022/03/01 09:47:37;;;;;;;8.55;6.40;;;19.10;30.40;;;;;;5054084;28;20021;-73
2022/03/01 09:50:04;;;;;;;8.25;6.65;;;19.30;29.80;;;;;;5055138;28;20017;-73
2022/03/01 09:52:30;;;;;;;8.38;6.65;;;18.90;30.00;;;;;;5054897;28;20099;-72
2022/03/01 09:54:56;;;;;;;;;;;19.00;30.20;;;;;;5057901;28;20543;-72
2022/03/01 09:57:22;;;;;;;8.45;6.35;;;19.40;30.00;;;;;;5051310;28;19927;-72
2022/03/01 09:59:48;;;;;;;8.43;7.25;;;19.70;29.60;;;;;;5055051;28;20500;-73
2022/03/01 10:02:14;;;;;;;;;;;19.90;29.50;;;;;;5055274;28;20029;-73
2022/03/01 10:04:59;;;;;;;9.00;6.22;;;19.70;29.40;;;;;;5055504;28;19909;-72
2022/03/01 10:07:27;;;;;;;10.20;6.93;;;19.60;29.80;;;;;;5056893;28;20036;-72
2022/03/01 10:09:54;;;;;;;9.35;7.13;;;19.50;29.50;;;;;;5057868;28;20024;-72
2022/03/01 10:12:24;;;;;;;8.60;6.80;;;19.00;30.00;;;;;;5055813;28;20043;-73
2022/03/01 10:15:06;;;;;;;8.35;7.15;;;19.00;30.00;;;;;;5035632;28;20108;-72
2022/03/01 10:17:46;;;;;;;9.45;7.50;;;19.10;30.20;;;;;;5051461;28;20036;-72
2022/03/01 10:20:19;;;;;;;9.13;7.15;;;19.10;30.10;;;;;;5029723;28;20033;-72
2022/03/01 10:22:51;;;;;;;8.70;7.13;;;19.00;30.20;;;;;;5051464;28;20656;-73
2022/03/01 10:25:19;;;;;;;10.00;7.28;;;19.50;30.30;;;;;;5056209;28;20082;-72
2022/03/01 10:27:50;;;;;;;10.07;7.35;;;20.00;29.30;;;;;;5051215;28;20025;-73
2022/03/01 10:30:30;;;;;;;9.13;7.28;;;20.10;29.50;;;;;;5054329;28;20101;-72
2022/03/01 10:33:08;;;;;;;12.18;8.48;;;20.00;29.70;;;;;;5053158;28;20025;-72
2022/03/01 10:35:41;;;;;;;8.95;7.07;;;19.70;29.70;;;;;;5050739;28;20040;-73
2022/03/01 10:38:08;;;;;;;10.60;8.00;;;19.80;30.00;;;;;;5056017;28;20024;-73
2022/03/01 10:40:35;;;;;;;9.73;7.65;;;19.90;30.00;;;;;;5056141;28;20017;-73
2022/03/01 10:43:07;;;;;;;11.10;7.75;;;19.70;29.90;;;;;;5051706;28;20043;-73
2022/03/01 10:45:34;;;;;;;10.93;8.13;;;19.10;30.50;;;;;;5052563;28;20668;-73
2022/03/01 10:48:00;;;;;;;10.63;7.90;;;18.90;30.80;;;;;;5054981;28;20020;-73
2022/03/01 10:50:25;;;;;;;9.75;7.80;;;18.80;30.80;;;;;;5052571;28;20029;-73
2022/03/01 10:52:51;;;;;;;10.82;7.35;;;19.10;30.60;;;;;;5043882;28;20028;-72
2022/03/01 10:55:28;;;;;;;12.40;8.43;;;19.10;30.60;;;;;;5037235;28;20028;-73
2022/03/01 10:58:05;;;;;;;10.15;8.13;;;19.20;30.30;;;;;;5053813;28;20555;-73
2022/03/01 11:00:31;;;;;;;;;;;18.70;31.10;;;;;;5056056;28;20432;-73
2022/03/01 11:02:57;;;;;;;10.37;7.80;;;18.50;30.90;;;;;;5053144;28;19928;-73
2022/03/01 11:05:23;;;;;;;12.35;9.00;;;18.40;31.40;;;;;;5034341;28;21273;-72
2022/03/01 11:07:49;;;;;;;;;;;18.70;31.00;;;;;;5055191;28;20187;-74
2022/03/01 11:10:17;;;;;;;11.45;8.68;;;18.10;32.80;;;;;;5056230;28;19904;-72
2022/03/01 11:12:46;;;;;;;11.07;8.10;;;17.70;32.00;;;;;;5051330;28;20028;-70
2022/03/01 11:15:38;;;;;;;12.65;8.82;;;16.70;32.70;;;;;;5059030;28;20082;-69
2022/03/01 11:18:30;;;;;;;11.13;8.18;;;16.00;34.00;;;;;;5051222;28;20123;-69
2022/03/01 11:20:57;;;;;;;13.88;8.35;;;15.00;34.50;;;;;;5055850;28;20524;-69
2022/03/01 11:23:27;;;;;;;11.80;7.97;;;14.20;35.60;;;;;;5054796;28;20029;-68
2022/03/01 11:25:53;;;;;;;13.80;8.65;;;13.80;36.20;;;;;;5052193;28;20024;-69
2022/03/01 11:28:30;;;;;;;11.70;8.15;;;13.60;36.70;;;;;;5040711;28;20024;-69
2022/03/01 11:30:57;;;;;;;11.35;8.30;;;13.20;37.30;;;;;;5037126;28;20455;-69
2022/03/01 11:33:28;;;;;;;14.45;8.40;;;12.90;37.80;;;;;;5050720;28;21054;-68
2022/03/01 11:35:55;;;;;;;12.88;8.32;;;12.60;38.20;;;;;;5054061;28;20041;-68
2022/03/01 11:38:28;;;;;;;15.88;9.88;;;12.10;38.80;;;;;;5056058;28;20028;-69
2022/03/01 11:41:06;;;;;;;13.60;9.30;;;11.70;40.40;;;;;;5025859;28;20163;-68
2022/03/01 11:43:36;;;;;;;15.88;8.80;;;11.20;41.60;;;;;;5056304;28;20477;-68
2022/03/01 11:46:17;;;;;;;14.68;8.57;;;10.90;41.70;;;;;;5030984;28;20028;-68
2022/03/01 11:48:57;;;;;;;14.68;9.38;;;10.80;42.20;;;;;;5049873;28;20056;-69
2022/03/01 11:51:35;;;;;;;16.27;9.43;;;10.70;41.90;;;;;;5053503;28;20028;-69
2022/03/01 11:54:07;;;;;;;16.58;8.80;;;10.60;42.20;;;;;;5052093;28;20509;-68
2022/03/01 11:56:35;;;;;;;13.70;8.48;;;10.50;42.40;;;;;;5054122;28;20485;-69
2022/03/01 11:59:09;;;;;;;13.98;8.80;;;10.50;42.50;;;;;;5045482;28;20123;-69
2022/03/01 12:01:36;;;;;;;14.35;8.93;;;10.60;42.40;;;;;;5030374;28;20143;-69
2022/03/01 12:04:04;;;;;;;14.93;10.20;;;10.60;42.50;;;;;;5054026;28;20017;-69
2022/03/01 12:06:32;;;;;;;13.38;8.90;;;10.60;42.70;;;;;;5052952;28;20535;-68
2022/03/01 12:09:04;;;;;;;11.98;7.97;;;10.30;42.60;;;;;;5049373;28;20054;-69
2022/03/01 12:11:38;;;;;;;15.27;8.90;;;10.20;42.80;;;;;;5053588;28;20025;-69
2022/03/01 12:14:14;;;;;;;14.63;8.07;;;10.40;42.50;;;;;;5052887;28;20140;-69
2022/03/01 12:16:40;;;;;;;14.20;9.75;;;10.50;42.50;;;;;;5052875;28;20812;-68
2022/03/01 12:19:21;;;;;;;14.60;8.67;;;10.50;41.80;;;;;;5053780;28;20033;-69
2022/03/01 12:21:58;;;;;;;13.98;8.68;;;10.50;42.50;;;;;;5054792;28;20090;-68
2022/03/01 12:24:27;;;;;;;13.75;8.48;;;10.40;42.10;;;;;;5025760;28;21015;-69
2022/03/01 12:26:55;;;;;;;14.02;8.50;;;10.40;42.00;;;;;;5052167;28;20077;-69
2022/03/01 12:29:26;;;;;;;14.07;8.55;;;10.30;42.20;;;;;;5043171;28;20036;-68
2022/03/01 12:31:58;;;;;;;13.00;8.43;;;10.30;42.00;;;;;;5042214;28;20697;-69
2022/03/01 12:34:26;;;;;;;15.98;9.38;;;10.30;42.40;;;;;;5045571;28;20032;-69
2022/03/01 12:36:58;;;;;;;11.52;8.07;;;10.40;42.20;;;;;;5052653;28;20016;-69
2022/03/01 12:39:27;;;;;;;14.70;8.93;;;10.30;42.10;;;;;;5055907;28;20031;-68
2022/03/01 12:41:53;;;;;;;11.75;7.50;;;10.20;41.80;;;;;;5052467;28;20897;-68
2022/03/01 12:44:20;;;;;;;13.52;7.38;;;10.30;41.20;;;;;;5044988;28;20083;-68
2022/03/01 12:46:47;;;;;;;14.25;8.13;;;10.30;40.50;;;;;;5055365;28;20107;-68
2022/03/01 12:49:15;;;;;;;10.60;7.50;;;10.30;40.70;;;;;;5051795;28;20048;-69